Impacts TAF Board
For situational awareness. Not to be used for flight planning purposes.
IDs:

KPHL - Philadelphia Intl, PA, US

Issued at 0848 UTC 18 Oct 2018
Updated at 0855 UTC 18 Oct 2018
Potential Impact None Slight Moderate High
Time0754Z 18/09Z 18/10Z 18/11Z 18/12Z 18/13Z 18/14Z 18/15Z 18/16Z 18/17Z 18/18Z 18/19Z 18/20Z 18/21Z>>
Type OBS PRVL PRVL PRVL PRVL PRVL PRVL PRVL PRVL PRVL PRVL PRVL PRVL PRVL
VIS 10 >6 >6 >6 >6 >6 >6 >6 >6 >6 >6 >6 >6 >6
CIG -- -- -- -- -- -- -- -- -- -- -- -- -- --
Cover FEW FEW FEW FEW FEW FEW FEW FEW FEW FEW FEW FEW FEW FEW
FltCat VFR VFR VFR VFR VFR VFR VFR VFR VFR VFR VFR VFR VFR VFR
WX -- -- -- -- -- -- -- -- -- -- -- -- -- --
WDir 300 310 310 310 310 310 310 310 310 310 310 310 310 310
WSpd 10 11 11 11 11 11 11 11 11 11 11 11 11 11
WGst -- -- -- -- -- -- -- -- -- -- -- -- -- --
Raw TAF
KPHL 180848Z 1809/1912 31011KT P6SM FEW250
  FM190000 29005KT P6SM SKC


Raw METAR
KPHL 180754Z 30010KT 10SM FEW080 07/M04 A3028 RMK AO2 SLP252 T00721044 $
KPHL 180654Z 30017G21KT 10SM FEW075 FEW150 08/M04 A3027 RMK AO2 SLP249 T00831039 $
KPHL 180554Z 32010KT 10SM FEW150 FEW200 08/M02 A3025 RMK AO2 SLP242 T00831022 10139 20083 51023 $

METAR Board
Radar Display
Forecast Discussion
For situational awareness. Not to be used for flight planning purposes.